Time;durP1;ratioP1;P1;durP2;ratioP2;P2;SDS_P1;SDS_P2;PMS_P1;PMS_P2;Temp;Humidity;BMP_temperature;BMP_pressure;BME280_temperature;BME280_humidity;BME280_pressure;Samples;Min_cycle;Max_cycle;Signal;HPM_P1;HPM_P2
2022/03/04 00:02:38;;;;;;;31.30;10.53;;;;;;;;;;6146559;23;20348;-90
2022/03/04 00:05:44;;;;;;;31.30;11.30;;;;;;;;;;6148024;23;20167;-89
2022/03/04 00:08:50;;;;;;;32.63;12.20;;;;;;;;;;6169751;23;20204;-89
2022/03/04 00:11:56;;;;;;;31.00;10.77;;;;;;;;;;6164816;23;20168;-90
2022/03/04 00:15:01;;;;;;;40.50;14.23;;;;;;;;;;6148684;23;20274;-89
2022/03/04 00:18:07;;;;;;;35.80;13.27;;;;;;;;;;6148894;23;20164;-91
2022/03/04 00:21:12;;;;;;;33.87;12.73;;;;;;;;;;6148760;23;20195;-90
2022/03/04 00:24:18;;;;;;;39.00;12.50;;;;;;;;;;6148639;23;20207;-90
2022/03/04 00:27:23;;;;;;;37.57;13.07;;;;;;;;;;6164685;23;20160;-90
2022/03/04 00:30:28;;;;;;;35.73;13.53;;;;;;;;;;6148597;23;20168;-90
2022/03/04 00:33:35;;;;;;;36.60;13.17;;;;;;;;;;6149730;23;20169;-92
2022/03/04 00:36:43;;;;;;;36.77;12.73;;;;;;;;;;6150354;23;20189;-90
2022/03/04 00:39:48;;;;;;;34.60;12.50;;;;;;;;;;6150539;23;20226;-89
2022/03/04 00:42:53;;;;;;;34.40;12.97;;;;;;;;;;6150379;23;20176;-88
2022/03/04 00:45:58;;;;;;;34.13;12.83;;;;;;;;;;6148681;23;20509;-90
2022/03/04 00:49:05;;;;;;;37.40;13.33;;;;;;;;;;6151702;23;20224;-91
2022/03/04 00:52:09;;;;;;;32.23;12.00;;;;;;;;;;6151737;23;20173;-90
2022/03/04 00:55:14;;;;;;;34.97;12.37;;;;;;;;;;6149833;23;20173;-91
2022/03/04 00:58:19;;;;;;;32.33;12.93;;;;;;;;;;6151293;23;20176;-90
2022/03/04 01:01:24;;;;;;;39.87;12.90;;;;;;;;;;6150006;23;20200;-88
2022/03/04 01:04:31;;;;;;;32.20;12.07;;;;;;;;;;6138080;23;20176;-89
2022/03/04 01:07:36;;;;;;;33.60;11.93;;;;;;;;;;6138300;23;20241;-90
2022/03/04 01:10:41;;;;;;;32.33;12.07;;;;;;;;;;6138331;23;20176;-90
2022/03/04 01:13:46;;;;;;;36.37;12.47;;;;;;;;;;6138749;23;20253;-90
2022/03/04 01:16:51;;;;;;;30.50;11.90;;;;;;;;;;6137941;23;20173;-91
2022/03/04 01:19:58;;;;;;;32.60;12.23;;;;;;;;;;6139070;23;20169;-90
2022/03/04 01:23:03;;;;;;;38.63;13.30;;;;;;;;;;6139798;23;20182;-90
2022/03/04 01:26:08;;;;;;;33.83;12.70;;;;;;;;;;6137352;23;20293;-91
2022/03/04 01:29:13;;;;;;;37.87;13.03;;;;;;;;;;6139248;23;20164;-90
2022/03/04 01:32:18;;;;;;;37.33;13.20;;;;;;;;;;6139369;23;20173;-89
2022/03/04 01:35:24;;;;;;;39.47;11.40;;;;;;;;;;6137283;23;20165;-90
2022/03/04 01:38:30;;;;;;;37.93;12.67;;;;;;;;;;6136989;23;20173;-89
2022/03/04 01:41:35;;;;;;;33.67;13.13;;;;;;;;;;6138891;23;20185;-90
2022/03/04 01:44:41;;;;;;;35.50;14.03;;;;;;;;;;6137294;23;20169;-91
2022/03/04 01:47:45;;;;;;;40.43;13.23;;;;;;;;;;6138674;23;20169;-91
2022/03/04 01:50:52;;;;;;;34.40;13.83;;;;;;;;;;6137052;23;20266;-91
2022/03/04 01:53:57;;;;;;;37.10;13.63;;;;;;;;;;6136157;23;20149;-90
2022/03/04 01:57:02;;;;;;;37.33;13.70;;;;;;;;;;6135092;23;20177;-90
2022/03/04 02:00:09;;;;;;;41.30;13.90;;;;;;;;;;6136380;23;20185;-90
2022/03/04 02:03:17;;;;;;;41.07;14.70;;;;;;;;;;6145663;23;20677;-89
2022/03/04 02:06:24;;;;;;;43.70;14.63;;;;;;;;;;6148873;23;20160;-90
2022/03/04 02:09:29;;;;;;;39.77;14.63;;;;;;;;;;6150649;23;20164;-90
2022/03/04 02:12:34;;;;;;;35.40;13.87;;;;;;;;;;6151821;23;20168;-91
2022/03/04 02:15:39;;;;;;;39.37;14.47;;;;;;;;;;6152982;23;20168;-90
2022/03/04 02:18:44;;;;;;;40.03;14.93;;;;;;;;;;6153344;23;20259;-91
2022/03/04 02:21:52;;;;;;;39.03;14.00;;;;;;;;;;6151404;23;20641;-90
2022/03/04 02:24:57;;;;;;;36.67;14.23;;;;;;;;;;6150633;23;20172;-89
2022/03/04 02:28:02;;;;;;;40.23;13.80;;;;;;;;;;6152805;23;20155;-90
2022/03/04 02:31:07;;;;;;;36.10;13.53;;;;;;;;;;6151725;23;20172;-90
2022/03/04 02:34:13;;;;;;;40.90;13.53;;;;;;;;;;6152632;23;20148;-90
2022/03/04 02:37:19;;;;;;;37.23;15.23;;;;;;;;;;6154550;23;20204;-89
2022/03/04 02:40:24;;;;;;;43.00;15.70;;;;;;;;;;6152461;23;20220;-90
2022/03/04 02:43:29;;;;;;;38.33;14.40;;;;;;;;;;6153225;23;20173;-90
2022/03/04 02:46:35;;;;;;;43.67;15.43;;;;;;;;;;6152302;23;20168;-89
2022/03/04 02:49:40;;;;;;;43.53;15.33;;;;;;;;;;6169470;23;20218;-89
2022/03/04 02:52:46;;;;;;;42.43;14.57;;;;;;;;;;6152643;23;20621;-90
2022/03/04 02:55:52;;;;;;;39.67;14.57;;;;;;;;;;6151772;23;20577;-90
2022/03/04 02:58:57;;;;;;;37.53;14.77;;;;;;;;;;6153565;23;20200;-90
2022/03/04 03:02:02;;;;;;;39.20;14.50;;;;;;;;;;6168762;23;20196;-90
2022/03/04 03:05:07;;;;;;;38.40;14.30;;;;;;;;;;6150764;23;20300;-90
2022/03/04 03:08:14;;;;;;;37.60;13.90;;;;;;;;;;6168091;23;20168;-90
2022/03/04 03:11:20;;;;;;;40.67;13.90;;;;;;;;;;6167653;23;20176;-89
2022/03/04 03:14:25;;;;;;;41.33;13.23;;;;;;;;;;6150165;23;20628;-89
2022/03/04 03:17:30;;;;;;;36.50;13.73;;;;;;;;;;6152656;23;20152;-91
2022/03/04 03:20:36;;;;;;;37.40;13.57;;;;;;;;;;6152489;23;20165;-90
2022/03/04 03:23:43;;;;;;;32.77;12.57;;;;;;;;;;6167992;23;20278;-90
2022/03/04 03:26:49;;;;;;;36.57;13.53;;;;;;;;;;6126262;23;20493;-90
2022/03/04 03:29:54;;;;;;;37.97;13.03;;;;;;;;;;6150072;23;20169;-91
2022/03/04 03:32:59;;;;;;;38.80;12.83;;;;;;;;;;6169041;23;20176;-91
2022/03/04 03:36:04;;;;;;;39.60;13.33;;;;;;;;;;6151507;23;20244;-89
2022/03/04 03:39:10;;;;;;;32.70;12.50;;;;;;;;;;6169094;23;20238;-91
2022/03/04 03:42:15;;;;;;;36.10;13.17;;;;;;;;;;6151609;23;20192;-91
2022/03/04 03:45:21;;;;;;;35.57;13.40;;;;;;;;;;6150257;23;20228;-90
2022/03/04 03:48:26;;;;;;;41.13;13.27;;;;;;;;;;6168082;23;20156;-89
2022/03/04 03:51:32;;;;;;;36.47;13.40;;;;;;;;;;6168711;23;20189;-89
2022/03/04 03:54:38;;;;;;;34.50;12.97;;;;;;;;;;6168691;23;20176;-89
2022/03/04 03:57:43;;;;;;;36.03;13.63;;;;;;;;;;6150456;23;20171;-90
2022/03/04 04:00:49;;;;;;;41.13;13.77;;;;;;;;;;6167754;23;20168;-90
2022/03/04 04:03:54;;;;;;;33.43;12.17;;;;;;;;;;6168174;23;20227;-89
2022/03/04 04:06:59;;;;;;;36.73;13.13;;;;;;;;;;6168026;23;20168;-89
2022/03/04 04:10:06;;;;;;;37.93;13.47;;;;;;;;;;6168846;23;20238;-89
2022/03/04 04:13:12;;;;;;;35.90;13.57;;;;;;;;;;6151249;23;20171;-89
2022/03/04 04:16:17;;;;;;;46.77;12.43;;;;;;;;;;6167551;23;20153;-88
2022/03/04 04:19:22;;;;;;;37.17;12.80;;;;;;;;;;6168847;23;20179;-88
2022/03/04 04:22:27;;;;;;;32.83;12.97;;;;;;;;;;6168955;23;20275;-89
2022/03/04 04:25:35;;;;;;;37.77;14.10;;;;;;;;;;6169901;23;20621;-88
2022/03/04 04:28:39;;;;;;;37.77;13.47;;;;;;;;;;6152035;23;20309;-90
2022/03/04 04:31:44;;;;;;;44.90;12.87;;;;;;;;;;6151951;23;20167;-90
2022/03/04 04:34:49;;;;;;;38.70;14.13;;;;;;;;;;6149179;23;20168;-90
2022/03/04 04:37:55;;;;;;;37.23;12.80;;;;;;;;;;6167294;23;20148;-90
2022/03/04 04:41:01;;;;;;;33.70;12.87;;;;;;;;;;6167111;23;20165;-90
2022/03/04 04:44:06;;;;;;;36.63;14.60;;;;;;;;;;6166875;23;20195;-89
2022/03/04 04:47:12;;;;;;;36.33;13.77;;;;;;;;;;6154624;23;20173;-91
2022/03/04 04:50:17;;;;;;;37.13;13.30;;;;;;;;;;6169256;23;20167;-90
2022/03/04 04:53:22;;;;;;;37.27;13.13;;;;;;;;;;6168436;23;20506;-91
2022/03/04 04:56:28;;;;;;;36.07;13.20;;;;;;;;;;6150579;23;20213;-91
2022/03/04 04:59:33;;;;;;;42.80;13.47;;;;;;;;;;6168666;23;20152;-90
2022/03/04 05:02:38;;;;;;;37.97;13.57;;;;;;;;;;6150444;23;20192;-91
2022/03/04 05:05:44;;;;;;;39.10;14.27;;;;;;;;;;6151029;23;20165;-90
2022/03/04 05:08:48;;;;;;;42.83;15.30;;;;;;;;;;6150630;23;20179;-90
2022/03/04 05:11:55;;;;;;;39.63;14.03;;;;;;;;;;6152395;23;20165;-90
2022/03/04 05:15:00;;;;;;;45.37;14.73;;;;;;;;;;6169994;23;20243;-90
2022/03/04 05:18:06;;;;;;;34.93;12.40;;;;;;;;;;6153036;23;20217;-89
2022/03/04 05:21:11;;;;;;;38.40;13.33;;;;;;;;;;6151515;23;20169;-90
2022/03/04 05:24:17;;;;;;;39.77;12.70;;;;;;;;;;6153093;23;20234;-91
2022/03/04 05:27:23;;;;;;;35.37;13.73;;;;;;;;;;6151660;23;20188;-90
2022/03/04 05:30:28;;;;;;;35.90;13.13;;;;;;;;;;6153757;23;20276;-91
2022/03/04 05:33:34;;;;;;;32.27;11.63;;;;;;;;;;6153102;23;20173;-90
2022/03/04 05:36:39;;;;;;;37.70;12.00;;;;;;;;;;6152987;23;20176;-91
2022/03/04 05:39:43;;;;;;;37.13;10.73;;;;;;;;;;6153532;23;20216;-91
2022/03/04 05:42:50;;;;;;;33.20;13.13;;;;;;;;;;6151949;23;20191;-90
2022/03/04 05:45:55;;;;;;;36.37;13.97;;;;;;;;;;6152231;23;20289;-90
2022/03/04 05:49:02;;;;;;;41.03;13.57;;;;;;;;;;6152503;23;20617;-90
2022/03/04 05:52:08;;;;;;;38.70;13.30;;;;;;;;;;6151495;23;20168;-89
2022/03/04 05:55:16;;;;;;;39.87;14.57;;;;;;;;;;6151318;23;20292;-91
2022/03/04 05:58:22;;;;;;;31.50;11.80;;;;;;;;;;6152049;23;20244;-90
2022/03/04 06:01:28;;;;;;;33.53;13.20;;;;;;;;;;6151212;23;20216;-89
2022/03/04 06:04:33;;;;;;;37.87;14.33;;;;;;;;;;6139032;23;20193;-90
2022/03/04 06:07:38;;;;;;;36.73;11.93;;;;;;;;;;6138832;23;20169;-91
2022/03/04 06:10:43;;;;;;;42.90;15.30;;;;;;;;;;6138217;23;20224;-90
2022/03/04 06:18:03;;;;;;;47.90;14.17;;;;;;;;;;6138867;23;20158;-90
2022/03/04 06:21:08;;;;;;;41.33;13.90;;;;;;;;;;6141102;23;20181;-90
2022/03/04 06:24:13;;;;;;;41.17;14.40;;;;;;;;;;6146346;23;20173;-89
2022/03/04 06:27:27;;;;;;;34.90;13.40;;;;;;;;;;6144436;23;20168;-90
2022/03/04 06:30:33;;;;;;;45.63;14.13;;;;;;;;;;6142894;23;20169;-91
2022/03/04 06:33:42;;;;;;;36.77;13.57;;;;;;;;;;6142740;23;20238;-91
2022/03/04 06:36:47;;;;;;;40.03;14.70;;;;;;;;;;6141798;23;20185;-91
2022/03/04 06:39:52;;;;;;;40.67;14.87;;;;;;;;;;6140958;23;20225;-90
2022/03/04 06:42:58;;;;;;;33.17;13.17;;;;;;;;;;6140864;23;20238;-89
2022/03/04 06:46:04;;;;;;;37.83;13.83;;;;;;;;;;6145311;23;20190;-90
2022/03/04 06:49:12;;;;;;;37.03;14.23;;;;;;;;;;6143010;23;20185;-91
2022/03/04 06:52:21;;;;;;;38.17;14.80;;;;;;;;;;6140567;23;20286;-90
2022/03/04 06:55:27;;;;;;;39.43;15.10;;;;;;;;;;6139208;23;20172;-90
2022/03/04 06:58:34;;;;;;;37.87;13.63;;;;;;;;;;6140615;23;20172;-90
2022/03/04 07:01:39;;;;;;;42.80;15.23;;;;;;;;;;6141227;23;20169;-91
2022/03/04 07:04:50;;;;;;;40.73;15.60;;;;;;;;;;6141308;23;20189;-90
2022/03/04 07:07:56;;;;;;;39.90;15.67;;;;;;;;;;6145110;23;20169;-90
2022/03/04 07:11:01;;;;;;;46.30;15.73;;;;;;;;;;6141612;23;20217;-91
2022/03/04 07:14:08;;;;;;;39.17;14.80;;;;;;;;;;6142289;23;20182;-90
2022/03/04 07:17:14;;;;;;;41.97;15.23;;;;;;;;;;6142285;23;20168;-90
2022/03/04 07:20:24;;;;;;;43.07;15.87;;;;;;;;;;6142685;23;20210;-90
2022/03/04 07:23:29;;;;;;;40.47;16.13;;;;;;;;;;6144676;23;20196;-90
2022/03/04 07:26:34;;;;;;;44.00;15.93;;;;;;;;;;6141315;23;20261;-90
2022/03/04 07:29:39;;;;;;;40.43;14.57;;;;;;;;;;6139576;23;20157;-91
2022/03/04 07:32:46;;;;;;;40.10;15.17;;;;;;;;;;6141522;23;20201;-91
2022/03/04 07:35:53;;;;;;;44.60;16.87;;;;;;;;;;6140848;23;20173;-91
2022/03/04 07:39:09;;;;;;;170.67;46.23;;;;;;;;;;6142271;23;20213;-90
2022/03/04 07:42:15;;;;;;;49.90;16.67;;;;;;;;;;6142254;23;20263;-90
2022/03/04 07:45:21;;;;;;;43.27;16.43;;;;;;;;;;6140446;23;20161;-90
2022/03/04 07:48:27;;;;;;;43.87;16.70;;;;;;;;;;6141756;23;20567;-91
2022/03/04 07:51:34;;;;;;;38.40;15.67;;;;;;;;;;6144770;23;20169;-87
2022/03/04 07:54:39;;;;;;;41.80;15.97;;;;;;;;;;6143735;23;20182;-91
2022/03/04 07:57:45;;;;;;;48.50;17.60;;;;;;;;;;6144772;23;20669;-90
2022/03/04 08:00:50;;;;;;;49.17;16.90;;;;;;;;;;6144283;23;20171;-90
2022/03/04 08:03:56;;;;;;;50.57;17.70;;;;;;;;;;6144145;23;20215;-91
2022/03/04 08:07:03;;;;;;;59.93;17.33;;;;;;;;;;6145519;23;20169;-90
2022/03/04 08:10:09;;;;;;;52.10;17.60;;;;;;;;;;6142976;23;20173;-91
2022/03/04 08:13:15;;;;;;;48.00;17.03;;;;;;;;;;6145570;23;20201;-90
2022/03/04 08:16:20;;;;;;;49.90;17.40;;;;;;;;;;6144689;23;20209;-91
2022/03/04 08:19:25;;;;;;;43.03;17.53;;;;;;;;;;6141863;23;20169;-90
2022/03/04 08:22:32;;;;;;;42.93;16.67;;;;;;;;;;6142355;23;20192;-91
2022/03/04 08:25:37;;;;;;;44.83;16.87;;;;;;;;;;6139187;23;20175;-91
2022/03/04 08:28:44;;;;;;;42.47;17.27;;;;;;;;;;6138774;23;20726;-90
2022/03/04 08:31:49;;;;;;;49.70;17.00;;;;;;;;;;6138802;23;20172;-91
2022/03/04 08:34:55;;;;;;;45.03;17.00;;;;;;;;;;6141052;23;20177;-90
2022/03/04 08:38:08;;;;;;;46.87;17.50;;;;;;;;;;6146603;23;20241;-91
2022/03/04 08:41:14;;;;;;;47.37;17.30;;;;;;;;;;6146406;23;20250;-90
2022/03/04 08:44:20;;;;;;;46.73;17.57;;;;;;;;;;6138903;23;20257;-90
2022/03/04 08:47:25;;;;;;;39.60;16.07;;;;;;;;;;6137929;23;20173;-88
2022/03/04 08:50:30;;;;;;;47.07;16.90;;;;;;;;;;6138732;23;20174;-89
2022/03/04 08:53:39;;;;;;;43.43;16.63;;;;;;;;;;6139265;23;20244;-90
2022/03/04 08:56:44;;;;;;;43.33;15.60;;;;;;;;;;6139413;23;20165;-89
2022/03/04 08:59:53;;;;;;;41.67;14.83;;;;;;;;;;6140624;23;20165;-89
2022/03/04 09:02:58;;;;;;;38.40;14.90;;;;;;;;;;6145457;23;20223;-90
2022/03/04 09:06:04;;;;;;;39.80;13.67;;;;;;;;;;6152072;23;20209;-90
2022/03/04 09:09:10;;;;;;;43.30;13.97;;;;;;;;;;6155199;23;20212;-90
2022/03/04 09:12:18;;;;;;;38.87;13.13;;;;;;;;;;6157734;23;20168;-91
2022/03/04 09:15:23;;;;;;;57.17;22.20;;;;;;;;;;6155883;23;20173;-91
2022/03/04 09:18:28;;;;;;;29.97;12.03;;;;;;;;;;6157450;23;20156;-91
2022/03/04 09:21:33;;;;;;;30.67;12.88;;;;;;;;;;6154836;23;20377;-91
2022/03/04 09:24:40;;;;;;;32.93;11.77;;;;;;;;;;6154006;23;20192;-91
2022/03/04 09:27:46;;;;;;;26.83;11.27;;;;;;;;;;6152788;23;20181;-89
2022/03/04 09:30:52;;;;;;;24.37;9.57;;;;;;;;;;6168479;23;20168;-92
2022/03/04 09:33:57;;;;;;;27.90;9.67;;;;;;;;;;6152798;23;20197;-92
2022/03/04 09:37:13;;;;;;;27.77;10.33;;;;;;;;;;6155217;23;20176;-90
2022/03/04 09:40:20;;;;;;;23.00;8.53;;;;;;;;;;6152495;23;20232;-90
2022/03/04 09:43:25;;;;;;;21.50;8.47;;;;;;;;;;6157943;23;20196;-91
2022/03/04 09:46:33;;;;;;;23.90;7.83;;;;;;;;;;6158701;23;20211;-87
2022/03/04 09:49:41;;;;;;;21.73;8.97;;;;;;;;;;6156078;23;20173;-89
2022/03/04 09:52:49;;;;;;;21.93;9.30;;;;;;;;;;6155853;23;20240;-91
2022/03/04 09:55:57;;;;;;;21.73;8.47;;;;;;;;;;6158643;23;20177;-90
2022/03/04 09:59:03;;;;;;;19.10;7.23;;;;;;;;;;6141544;23;20244;-89
2022/03/04 10:02:09;;;;;;;21.77;8.13;;;;;;;;;;6157548;23;20536;-90
2022/03/04 10:05:15;;;;;;;21.97;8.17;;;;;;;;;;6156293;23;20168;-90
2022/03/04 10:08:21;;;;;;;25.07;8.57;;;;;;;;;;6154699;23;20218;-92
2022/03/04 10:11:31;;;;;;;20.27;7.87;;;;;;;;;;6156651;23;20168;-91
2022/03/04 10:14:56;;;;;;;20.27;7.33;;;;;;;;;;6156017;23;20172;-91
2022/03/04 10:18:02;;;;;;;20.17;7.77;;;;;;;;;;6154679;23;20243;-91
2022/03/04 10:21:08;;;;;;;20.53;7.37;;;;;;;;;;6154901;23;20214;-90
2022/03/04 10:24:15;;;;;;;15.07;6.63;;;;;;;;;;6155951;23;20220;-89
2022/03/04 10:27:22;;;;;;;25.97;8.70;;;;;;;;;;6155831;23;20185;-90
2022/03/04 10:30:31;;;;;;;18.93;6.83;;;;;;;;;;6158953;23;20240;-91
2022/03/04 10:33:36;;;;;;;22.30;7.43;;;;;;;;;;6152575;23;20511;-91
2022/03/04 10:36:54;;;;;;;22.67;7.47;;;;;;;;;;6175052;23;20176;-90
2022/03/04 10:40:05;;;;;;;29.37;10.33;;;;;;;;;;6173018;23;20160;-90
2022/03/04 10:43:13;;;;;;;25.23;9.17;;;;;;;;;;6157245;23;20195;-91
2022/03/04 10:46:18;;;;;;;20.70;7.30;;;;;;;;;;6153142;23;20192;-92
2022/03/04 10:49:25;;;;;;;19.80;6.67;;;;;;;;;;6154714;23;20167;-90
2022/03/04 10:52:33;;;;;;;16.90;7.43;;;;;;;;;;6154465;23;20204;-91
2022/03/04 10:55:40;;;;;;;18.07;6.73;;;;;;;;;;6155645;23;20226;-88
2022/03/04 10:58:47;;;;;;;15.43;6.10;;;;;;;;;;6155034;23;20164;-91
2022/03/04 11:01:56;;;;;;;16.20;6.63;;;;;;;;;;6155375;23;20548;-89
2022/03/04 11:05:01;;;;;;;19.53;6.57;;;;;;;;;;6144182;23;20731;-89
2022/03/04 11:08:07;;;;;;;16.77;6.60;;;;;;;;;;6146087;23;20194;-88
2022/03/04 11:11:12;;;;;;;11.47;5.20;;;;;;;;;;6145366;23;20568;-88
2022/03/04 11:14:22;;;;;;;13.18;4.93;;;;;;;;;;6143006;23;20231;-89
2022/03/04 11:17:27;;;;;;;10.18;4.40;;;;;;;;;;6143079;23;20201;-90
2022/03/04 11:20:34;;;;;;;8.93;3.20;;;;;;;;;;6143019;23;20172;-92
2022/03/04 11:23:39;;;;;;;11.53;4.43;;;;;;;;;;6142772;23;20314;-89
2022/03/04 11:26:47;;;;;;;10.10;3.60;;;;;;;;;;6142790;23;20189;-90
2022/03/04 11:29:57;;;;;;;13.50;3.50;;;;;;;;;;6149359;23;20177;-88
2022/03/04 11:33:06;;;;;;;13.00;3.93;;;;;;;;;;6144457;23;20157;-90
2022/03/04 11:36:29;;;;;;;9.57;3.80;;;;;;;;;;6146118;23;20564;-92
2022/03/04 11:39:54;;;;;;;8.87;3.87;;;;;;;;;;6145317;23;20193;-91
2022/03/04 11:43:00;;;;;;;9.97;3.90;;;;;;;;;;6144358;23;20157;-90
2022/03/04 11:46:21;;;;;;;10.43;3.87;;;;;;;;;;6142085;23;20213;-90
2022/03/04 11:49:31;;;;;;;11.73;4.53;;;;;;;;;;6142813;23;20173;-91
2022/03/04 11:52:44;;;;;;;40.10;5.23;;;;;;;;;;6142142;23;20210;-91
2022/03/04 11:56:11;;;;;;;10.00;3.27;;;;;;;;;;6140045;23;20178;-88
2022/03/04 11:59:20;;;;;;;6.40;3.10;;;;;;;;;;6140308;23;20198;-91
2022/03/04 12:02:28;;;;;;;11.60;3.90;;;;;;;;;;6141134;23;20176;-92
2022/03/04 12:05:37;;;;;;;8.53;3.40;;;;;;;;;;6140575;23;20157;-90
2022/03/04 12:08:42;;;;;;;13.43;4.87;;;;;;;;;;6139476;23;20168;-91
2022/03/04 12:12:02;;;;;;;9.87;4.27;;;;;;;;;;6139666;23;20512;-91
2022/03/04 12:15:26;;;;;;;8.80;3.47;;;;;;;;;;6138842;23;20172;-90
2022/03/04 12:18:32;;;;;;;12.70;4.97;;;;;;;;;;6139851;23;20161;-91
2022/03/04 12:21:42;;;;;;;7.60;3.37;;;;;;;;;;6142705;23;20169;-89
2022/03/04 12:24:54;;;;;;;6.43;3.17;;;;;;;;;;6140030;23;20200;-89
2022/03/04 12:27:59;;;;;;;10.13;3.07;;;;;;;;;;6140169;23;20173;-91
2022/03/04 12:31:28;;;;;;;9.13;3.37;;;;;;;;;;6139992;23;20169;-91
2022/03/04 12:34:34;;;;;;;10.27;3.30;;;;;;;;;;6142380;23;20168;-90
2022/03/04 12:37:42;;;;;;;7.27;3.10;;;;;;;;;;6144044;23;20220;-91
2022/03/04 12:40:49;;;;;;;7.90;3.10;;;;;;;;;;6144458;23;20279;-91
2022/03/04 12:43:56;;;;;;;6.80;2.60;;;;;;;;;;6144552;23;20273;-91
2022/03/04 12:47:03;;;;;;;9.47;3.77;;;;;;;;;;6145311;23;20493;-91
2022/03/04 12:50:08;;;;;;;6.53;3.10;;;;;;;;;;6142958;23;20181;-91
2022/03/04 12:53:31;;;;;;;9.30;3.53;;;;;;;;;;6145304;23;20169;-91
2022/03/04 12:56:36;;;;;;;7.60;3.13;;;;;;;;;;6144258;23;20189;-90
2022/03/04 12:59:45;;;;;;;8.57;2.87;;;;;;;;;;6144548;23;20241;-90
2022/03/04 13:02:50;;;;;;;7.82;3.20;;;;;;;;;;6145630;23;20247;-90
2022/03/04 13:05:56;;;;;;;9.83;3.23;;;;;;;;;;6152725;23;20187;-90
2022/03/04 13:09:03;;;;;;;5.97;2.55;;;;;;;;;;6154321;23;20168;-91
2022/03/04 13:12:09;;;;;;;11.47;2.80;;;;;;;;;;6154422;23;20172;-90
2022/03/04 13:15:14;;;;;;;6.60;3.23;;;;;;;;;;6152696;23;20494;-90
2022/03/04 13:18:19;;;;;;;7.33;3.33;;;;;;;;;;6153565;23;20172;-90
2022/03/04 13:21:44;;;;;;;94.47;24.57;;;;;;;;;;6135785;23;20184;-90
2022/03/04 13:24:58;;;;;;;25.50;9.03;;;;;;;;;;6154168;23;20199;-90
2022/03/04 13:28:04;;;;;;;7.07;3.00;;;;;;;;;;6157632;23;20192;-90
2022/03/04 13:31:11;;;;;;;8.33;3.20;;;;;;;;;;6154402;23;20238;-89
2022/03/04 13:34:17;;;;;;;6.67;2.33;;;;;;;;;;6157005;23;20225;-90
2022/03/04 13:37:24;;;;;;;7.43;2.90;;;;;;;;;;6172180;23;20176;-90
2022/03/04 13:40:32;;;;;;;12.43;2.50;;;;;;;;;;6155808;23;20232;-90
2022/03/04 13:43:38;;;;;;;11.13;3.10;;;;;;;;;;6153004;23;20168;-89
2022/03/04 13:46:57;;;;;;;6.73;2.77;;;;;;;;;;6150750;23;20229;-90
2022/03/04 13:50:04;;;;;;;9.63;4.03;;;;;;;;;;6151052;23;20620;-90
2022/03/04 13:53:14;;;;;;;10.43;3.80;;;;;;;;;;6153123;23;20296;-91
2022/03/04 13:56:21;;;;;;;9.33;2.77;;;;;;;;;;6152973;23;20304;-90
2022/03/04 13:59:29;;;;;;;46.67;13.97;;;;;;;;;;6151457;23;20173;-88
2022/03/04 14:02:44;;;;;;;12.73;3.17;;;;;;;;;;6152287;23;20189;-90
2022/03/04 14:06:02;;;;;;;6.50;2.67;;;;;;;;;;6149263;23;20224;-89
2022/03/04 14:09:14;;;;;;;7.03;2.83;;;;;;;;;;6151861;23;20164;-90
2022/03/04 14:12:23;;;;;;;5.80;2.40;;;;;;;;;;6150242;23;20172;-90
2022/03/04 14:15:29;;;;;;;7.73;2.97;;;;;;;;;;6151937;23;20628;-88
2022/03/04 14:18:34;;;;;;;5.90;2.57;;;;;;;;;;6152190;23;20190;-91
2022/03/04 14:21:40;;;;;;;7.40;3.10;;;;;;;;;;6171965;23;20169;-88
2022/03/04 14:24:46;;;;;;;6.27;2.90;;;;;;;;;;6169389;23;20283;-90
2022/03/04 14:27:54;;;;;;;10.20;3.53;;;;;;;;;;6152258;23;20200;-89
2022/03/04 14:31:00;;;;;;;9.10;3.20;;;;;;;;;;6149789;23;20168;-90
2022/03/04 14:34:05;;;;;;;7.67;2.40;;;;;;;;;;6152413;23;20168;-89
2022/03/04 14:37:09;;;;;;;8.30;2.70;;;;;;;;;;6154039;23;20169;-90
2022/03/04 14:40:18;;;;;;;9.87;2.57;;;;;;;;;;6149418;23;20500;-90
2022/03/04 14:43:25;;;;;;;6.40;2.50;;;;;;;;;;6151950;23;20245;-90
2022/03/04 14:46:31;;;;;;;7.83;3.40;;;;;;;;;;6150645;23;20167;-89
2022/03/04 14:49:37;;;;;;;7.80;3.27;;;;;;;;;;6150724;23;20164;-90
2022/03/04 14:52:43;;;;;;;8.60;3.70;;;;;;;;;;6151387;23;20173;-90
2022/03/04 14:55:48;;;;;;;10.43;4.00;;;;;;;;;;6149680;23;20168;-89
2022/03/04 14:58:54;;;;;;;8.00;3.63;;;;;;;;;;6150855;23;20168;-91
2022/03/04 15:02:01;;;;;;;9.43;3.77;;;;;;;;;;6149739;23;20718;-90
2022/03/04 15:05:07;;;;;;;11.60;6.30;;;;;;;;;;6150298;23;20188;-91
2022/03/04 15:08:13;;;;;;;13.17;4.00;;;;;;;;;;6151481;23;20175;-90
2022/03/04 15:11:19;;;;;;;10.83;4.40;;;;;;;;;;6150479;23;20280;-90
2022/03/04 15:14:30;;;;;;;10.57;4.03;;;;;;;;;;6149410;23;20171;-89
2022/03/04 15:17:35;;;;;;;7.33;3.73;;;;;;;;;;6151122;23;20192;-90
2022/03/04 15:20:41;;;;;;;10.10;3.70;;;;;;;;;;6150600;23;20242;-91
2022/03/04 15:23:46;;;;;;;8.17;3.53;;;;;;;;;;6149820;23;20177;-89
2022/03/04 15:26:51;;;;;;;8.60;3.90;;;;;;;;;;6152272;23;20216;-90
2022/03/04 15:29:58;;;;;;;8.80;3.67;;;;;;;;;;6168008;23;20189;-88
2022/03/04 15:33:03;;;;;;;45.60;16.37;;;;;;;;;;6150154;23;20597;-90
2022/03/04 15:36:13;;;;;;;10.93;3.60;;;;;;;;;;6149329;23;20210;-90
2022/03/04 15:39:19;;;;;;;11.80;4.03;;;;;;;;;;6150212;23;20169;-90
2022/03/04 15:42:24;;;;;;;8.27;3.33;;;;;;;;;;6156182;23;20188;-90
2022/03/04 15:45:30;;;;;;;8.63;3.23;;;;;;;;;;6150099;23;20196;-92
2022/03/04 15:48:36;;;;;;;7.27;3.33;;;;;;;;;;6149469;23;20169;-91
2022/03/04 15:51:41;;;;;;;9.57;3.40;;;;;;;;;;6147430;23;20176;-89
2022/03/04 15:54:47;;;;;;;7.90;3.47;;;;;;;;;;6147967;23;20164;-90
2022/03/04 15:57:52;;;;;;;8.23;3.33;;;;;;;;;;6148686;23;20172;-91
2022/03/04 16:00:58;;;;;;;9.33;3.67;;;;;;;;;;6149574;23;20169;-91
2022/03/04 16:04:08;;;;;;;9.10;3.43;;;;;;;;;;6137602;23;20193;-90
2022/03/04 16:07:13;;;;;;;11.17;4.30;;;;;;;;;;6135877;23;20169;-91
2022/03/04 16:10:19;;;;;;;10.87;4.10;;;;;;;;;;6135792;23;20173;-89
2022/03/04 16:13:25;;;;;;;7.23;3.40;;;;;;;;;;6136272;23;20168;-89
2022/03/04 16:16:34;;;;;;;8.70;3.90;;;;;;;;;;6135965;23;20223;-91
2022/03/04 16:19:41;;;;;;;9.20;3.10;;;;;;;;;;6137658;23;20177;-90
2022/03/04 16:23:06;;;;;;;9.40;3.63;;;;;;;;;;6138787;23;20176;-90
2022/03/04 16:26:18;;;;;;;9.17;3.30;;;;;;;;;;6139273;23;20269;-89
2022/03/04 16:29:23;;;;;;;10.53;3.40;;;;;;;;;;6138616;23;20240;-91
2022/03/04 16:32:30;;;;;;;12.83;3.83;;;;;;;;;;6140202;23;20173;-91
2022/03/04 16:35:36;;;;;;;13.90;3.67;;;;;;;;;;6139291;23;20624;-91
2022/03/04 16:38:41;;;;;;;6.97;3.10;;;;;;;;;;6137107;23;20169;-90
2022/03/04 16:41:47;;;;;;;7.60;3.30;;;;;;;;;;6137000;23;20173;-91
2022/03/04 16:44:53;;;;;;;9.10;3.57;;;;;;;;;;6136484;23;20603;-90
2022/03/04 16:48:00;;;;;;;9.63;4.10;;;;;;;;;;6138187;23;20177;-90
2022/03/04 16:51:05;;;;;;;10.87;3.83;;;;;;;;;;6138434;23;20313;-90
2022/03/04 16:54:12;;;;;;;9.03;3.87;;;;;;;;;;6136224;23;20188;-90
2022/03/04 16:57:17;;;;;;;9.77;4.20;;;;;;;;;;6139357;23;20231;-90
2022/03/04 17:00:23;;;;;;;11.27;3.87;;;;;;;;;;6138758;23;20169;-90
2022/03/04 17:03:29;;;;;;;9.17;3.73;;;;;;;;;;6148549;23;20191;-90
2022/03/04 17:06:35;;;;;;;11.97;3.90;;;;;;;;;;6149514;23;20196;-90
2022/03/04 17:09:44;;;;;;;11.97;4.53;;;;;;;;;;6149457;23;20695;-90
2022/03/04 17:12:50;;;;;;;12.00;4.70;;;;;;;;;;6152312;23;20221;-90
2022/03/04 17:15:56;;;;;;;12.27;5.33;;;;;;;;;;6151585;23;20236;-89
2022/03/04 17:19:03;;;;;;;13.53;5.57;;;;;;;;;;6151420;23;20176;-91
2022/03/04 17:22:12;;;;;;;17.40;6.10;;;;;;;;;;6151601;23;20160;-90
2022/03/04 17:25:17;;;;;;;21.30;8.52;;;;;;;;;;6148616;23;20432;-90
2022/03/04 17:31:44;;;;;;;21.17;6.70;;;;;;;;;;6152503;23;20231;-88
2022/03/04 17:34:51;;;;;;;17.83;6.63;;;;;;;;;;6152097;23;20165;-91
2022/03/04 17:37:56;;;;;;;16.53;6.80;;;;;;;;;;6152663;23;20169;-90
2022/03/04 17:41:01;;;;;;;19.37;6.77;;;;;;;;;;6154915;23;20276;-90
2022/03/04 17:44:06;;;;;;;20.10;7.37;;;;;;;;;;6154170;23;20168;-90
2022/03/04 17:47:12;;;;;;;22.90;7.50;;;;;;;;;;6152899;23;20628;-88
2022/03/04 17:50:19;;;;;;;21.63;8.30;;;;;;;;;;6155678;23;20188;-90
2022/03/04 17:53:24;;;;;;;31.83;10.97;;;;;;;;;;6153178;23;20176;-91
2022/03/04 17:56:29;;;;;;;27.07;9.10;;;;;;;;;;6170608;23;20168;-92
2022/03/04 17:59:35;;;;;;;36.87;12.77;;;;;;;;;;6172963;23;20152;-90
2022/03/04 18:02:42;;;;;;;21.50;7.83;;;;;;;;;;6155336;23;20620;-92
2022/03/04 18:05:48;;;;;;;24.20;7.80;;;;;;;;;;6155101;23;20239;-91
2022/03/04 18:08:54;;;;;;;27.90;10.77;;;;;;;;;;6154006;23;20224;-91
2022/03/04 18:11:59;;;;;;;19.83;8.67;;;;;;;;;;6169134;23;20176;-91
2022/03/04 18:15:05;;;;;;;21.63;9.30;;;;;;;;;;6152099;23;20205;-91
2022/03/04 18:18:17;;;;;;;20.40;7.63;;;;;;;;;;6154307;23;20292;-91
2022/03/04 18:21:25;;;;;;;16.63;6.67;;;;;;;;;;6156312;23;20181;-91
2022/03/04 18:24:31;;;;;;;19.27;7.07;;;;;;;;;;6152628;23;20220;-91
2022/03/04 18:27:37;;;;;;;17.47;7.30;;;;;;;;;;6150614;23;20252;-89